sensor_id;sensor_type;location;lat;lon;timestamp;temperature;humidity
26990;DHT22;14537;47.788;11.858;2022-12-07T00:00:51;1.50;99.90
26990;DHT22;14537;47.788;11.858;2022-12-07T00:03:17;1.50;99.90
26990;DHT22;14537;47.788;11.858;2022-12-07T00:05:42;1.50;99.90
26990;DHT22;14537;47.788;11.858;2022-12-07T00:08:08;1.50;99.90
26990;DHT22;14537;47.788;11.858;2022-12-07T00:10:34;1.50;99.90
26990;DHT22;14537;47.788;11.858;2022-12-07T00:13:00;1.50;99.90
26990;DHT22;14537;47.788;11.858;2022-12-07T00:15:25;1.50;99.90
26990;DHT22;14537;47.788;11.858;2022-12-07T00:17:51;1.60;99.90
26990;DHT22;14537;47.788;11.858;2022-12-07T00:20:17;1.50;99.90
26990;DHT22;14537;47.788;11.858;2022-12-07T00:22:42;1.50;99.90
26990;DHT22;14537;47.788;11.858;2022-12-07T00:25:08;1.50;99.90
26990;DHT22;14537;47.788;11.858;2022-12-07T00:27:33;1.50;99.90
26990;DHT22;14537;47.788;11.858;2022-12-07T00:29:59;1.60;99.90
26990;DHT22;14537;47.788;11.858;2022-12-07T00:32:25;1.60;99.90
26990;DHT22;14537;47.788;11.858;2022-12-07T00:34:50;1.60;99.90
26990;DHT22;14537;47.788;11.858;2022-12-07T00:37:16;1.50;99.90
26990;DHT22;14537;47.788;11.858;2022-12-07T00:39:41;1.60;99.90
26990;DHT22;14537;47.788;11.858;2022-12-07T00:42:07;1.50;99.90
26990;DHT22;14537;47.788;11.858;2022-12-07T00:44:33;1.50;99.90
26990;DHT22;14537;47.788;11.858;2022-12-07T00:46:58;1.50;99.90
26990;DHT22;14537;47.788;11.858;2022-12-07T00:49:24;1.50;99.90
26990;DHT22;14537;47.788;11.858;2022-12-07T00:51:50;1.50;99.90
26990;DHT22;14537;47.788;11.858;2022-12-07T00:54:15;1.50;99.90
26990;DHT22;14537;47.788;11.858;2022-12-07T00:56:41;1.50;99.90
26990;DHT22;14537;47.788;11.858;2022-12-07T00:59:07;1.50;99.90
26990;DHT22;14537;47.788;11.858;2022-12-07T01:01:35;1.50;99.90
26990;DHT22;14537;47.788;11.858;2022-12-07T01:04:02;1.50;99.90
26990;DHT22;14537;47.788;11.858;2022-12-07T01:06:28;1.50;99.90
26990;DHT22;14537;47.788;11.858;2022-12-07T01:08:54;1.50;99.90
26990;DHT22;14537;47.788;11.858;2022-12-07T01:11:23;1.50;99.90
26990;DHT22;14537;47.788;11.858;2022-12-07T01:13:51;1.50;99.90
26990;DHT22;14537;47.788;11.858;2022-12-07T01:16:17;1.40;99.90
26990;DHT22;14537;47.788;11.858;2022-12-07T01:18:46;1.40;99.90
26990;DHT22;14537;47.788;11.858;2022-12-07T01:21:17;1.40;99.90
26990;DHT22;14537;47.788;11.858;2022-12-07T01:23:44;1.50;99.90
26990;DHT22;14537;47.788;11.858;2022-12-07T01:26:11;1.50;99.90
26990;DHT22;14537;47.788;11.858;2022-12-07T01:28:38;1.50;99.90
26990;DHT22;14537;47.788;11.858;2022-12-07T01:31:09;1.50;99.90
26990;DHT22;14537;47.788;11.858;2022-12-07T01:33:38;1.40;99.90
26990;DHT22;14537;47.788;11.858;2022-12-07T01:36:04;1.40;99.90
26990;DHT22;14537;47.788;11.858;2022-12-07T01:38:30;1.50;99.90
26990;DHT22;14537;47.788;11.858;2022-12-07T01:40:57;1.50;99.90
26990;DHT22;14537;47.788;11.858;2022-12-07T01:43:24;1.60;99.90
26990;DHT22;14537;47.788;11.858;2022-12-07T01:45:51;1.60;99.90
26990;DHT22;14537;47.788;11.858;2022-12-07T01:48:19;1.70;99.90
26990;DHT22;14537;47.788;11.858;2022-12-07T01:50:48;1.70;99.90
26990;DHT22;14537;47.788;11.858;2022-12-07T01:53:16;1.60;99.90
26990;DHT22;14537;47.788;11.858;2022-12-07T01:55:45;1.60;99.90
26990;DHT22;14537;47.788;11.858;2022-12-07T01:58:12;1.70;99.90
26990;DHT22;14537;47.788;11.858;2022-12-07T02:00:39;1.70;99.90
26990;DHT22;14537;47.788;11.858;2022-12-07T02:03:26;1.60;99.90
26990;DHT22;14537;47.788;11.858;2022-12-07T02:05:53;1.60;99.90
26990;DHT22;14537;47.788;11.858;2022-12-07T02:08:20;1.70;99.90
26990;DHT22;14537;47.788;11.858;2022-12-07T02:10:45;1.60;99.90
26990;DHT22;14537;47.788;11.858;2022-12-07T02:13:15;1.70;99.90
26990;DHT22;14537;47.788;11.858;2022-12-07T02:31:45;1.80;99.90
26990;DHT22;14537;47.788;11.858;2022-12-07T02:34:50;1.80;99.90
26990;DHT22;14537;47.788;11.858;2022-12-07T02:37:45;1.80;99.90
26990;DHT22;14537;47.788;11.858;2022-12-07T02:42:47;1.80;99.90
26990;DHT22;14537;47.788;11.858;2022-12-07T02:45:17;1.80;99.90
26990;DHT22;14537;47.788;11.858;2022-12-07T02:47:47;1.80;99.90
26990;DHT22;14537;47.788;11.858;2022-12-07T02:50:14;1.80;99.90
26990;DHT22;14537;47.788;11.858;2022-12-07T02:52:40;1.80;99.90
26990;DHT22;14537;47.788;11.858;2022-12-07T02:55:06;1.80;99.90
26990;DHT22;14537;47.788;11.858;2022-12-07T02:57:49;1.80;99.90
26990;DHT22;14537;47.788;11.858;2022-12-07T03:00:19;1.80;99.90
26990;DHT22;14537;47.788;11.858;2022-12-07T03:03:09;1.80;99.90
26990;DHT22;14537;47.788;11.858;2022-12-07T03:11:09;1.70;99.90
26990;DHT22;14537;47.788;11.858;2022-12-07T03:13:48;1.60;99.90
26990;DHT22;14537;47.788;11.858;2022-12-07T03:16:20;1.70;99.90
26990;DHT22;14537;47.788;11.858;2022-12-07T03:18:48;1.60;99.90
26990;DHT22;14537;47.788;11.858;2022-12-07T03:21:18;1.60;99.90
26990;DHT22;14537;47.788;11.858;2022-12-07T03:23:48;1.50;99.90
26990;DHT22;14537;47.788;11.858;2022-12-07T03:26:17;1.40;99.90
26990;DHT22;14537;47.788;11.858;2022-12-07T03:28:49;1.50;99.90
26990;DHT22;14537;47.788;11.858;2022-12-07T03:31:23;1.50;99.90
26990;DHT22;14537;47.788;11.858;2022-12-07T03:34:04;1.50;99.90
26990;DHT22;14537;47.788;11.858;2022-12-07T03:36:34;1.60;99.90
26990;DHT22;14537;47.788;11.858;2022-12-07T03:39:12;1.60;99.90
26990;DHT22;14537;47.788;11.858;2022-12-07T03:41:39;1.60;99.90
26990;DHT22;14537;47.788;11.858;2022-12-07T03:44:05;1.60;99.90
26990;DHT22;14537;47.788;11.858;2022-12-07T03:49:27;1.50;99.90
26990;DHT22;14537;47.788;11.858;2022-12-07T03:54:52;1.70;99.90
26990;DHT22;14537;47.788;11.858;2022-12-07T03:57:21;1.70;99.90
26990;DHT22;14537;47.788;11.858;2022-12-07T03:59:48;1.80;99.90
26990;DHT22;14537;47.788;11.858;2022-12-07T04:02:14;1.80;99.90
26990;DHT22;14537;47.788;11.858;2022-12-07T04:04:41;1.70;99.90
26990;DHT22;14537;47.788;11.858;2022-12-07T04:07:07;1.60;99.90
26990;DHT22;14537;47.788;11.858;2022-12-07T04:09:33;1.50;99.90
26990;DHT22;14537;47.788;11.858;2022-12-07T04:11:58;1.50;99.90
26990;DHT22;14537;47.788;11.858;2022-12-07T04:14:24;1.60;99.90
26990;DHT22;14537;47.788;11.858;2022-12-07T04:16:57;1.60;99.90
26990;DHT22;14537;47.788;11.858;2022-12-07T04:19:25;1.70;99.90
26990;DHT22;14537;47.788;11.858;2022-12-07T04:21:51;1.70;99.90
26990;DHT22;14537;47.788;11.858;2022-12-07T04:24:17;1.80;99.90
26990;DHT22;14537;47.788;11.858;2022-12-07T04:26:44;1.70;99.90
26990;DHT22;14537;47.788;11.858;2022-12-07T04:29:10;1.70;99.90
26990;DHT22;14537;47.788;11.858;2022-12-07T04:31:36;1.70;99.90
26990;DHT22;14537;47.788;11.858;2022-12-07T04:34:02;1.70;99.90
26990;DHT22;14537;47.788;11.858;2022-12-07T04:36:28;1.70;99.90
26990;DHT22;14537;47.788;11.858;2022-12-07T04:38:54;1.70;99.90
26990;DHT22;14537;47.788;11.858;2022-12-07T04:41:21;1.70;99.90
26990;DHT22;14537;47.788;11.858;2022-12-07T04:43:56;1.80;99.90
26990;DHT22;14537;47.788;11.858;2022-12-07T04:46:23;1.70;99.90
26990;DHT22;14537;47.788;11.858;2022-12-07T04:48:49;1.70;99.90
26990;DHT22;14537;47.788;11.858;2022-12-07T04:51:20;1.70;99.90
26990;DHT22;14537;47.788;11.858;2022-12-07T04:53:46;1.70;99.90
26990;DHT22;14537;47.788;11.858;2022-12-07T04:56:11;1.60;99.90
26990;DHT22;14537;47.788;11.858;2022-12-07T04:58:37;1.60;99.90
26990;DHT22;14537;47.788;11.858;2022-12-07T05:01:03;1.50;99.90
26990;DHT22;14537;47.788;11.858;2022-12-07T05:03:28;1.50;99.90
26990;DHT22;14537;47.788;11.858;2022-12-07T05:05:54;1.50;99.90
26990;DHT22;14537;47.788;11.858;2022-12-07T05:08:20;1.50;99.90
26990;DHT22;14537;47.788;11.858;2022-12-07T05:10:45;1.50;99.90
26990;DHT22;14537;47.788;11.858;2022-12-07T05:13:11;1.50;99.90
26990;DHT22;14537;47.788;11.858;2022-12-07T05:15:36;1.60;99.90
26990;DHT22;14537;47.788;11.858;2022-12-07T05:18:02;1.60;99.90
26990;DHT22;14537;47.788;11.858;2022-12-07T05:20:28;1.70;99.90
26990;DHT22;14537;47.788;11.858;2022-12-07T05:22:54;1.70;99.90
26990;DHT22;14537;47.788;11.858;2022-12-07T05:25:19;1.80;99.90
26990;DHT22;14537;47.788;11.858;2022-12-07T05:27:45;1.80;99.90
26990;DHT22;14537;47.788;11.858;2022-12-07T05:30:11;1.80;99.90
26990;DHT22;14537;47.788;11.858;2022-12-07T05:32:37;1.80;99.90
26990;DHT22;14537;47.788;11.858;2022-12-07T05:35:03;1.80;99.90
26990;DHT22;14537;47.788;11.858;2022-12-07T05:37:28;1.80;99.90
26990;DHT22;14537;47.788;11.858;2022-12-07T05:39:54;1.80;99.90
26990;DHT22;14537;47.788;11.858;2022-12-07T05:42:19;1.70;99.90
26990;DHT22;14537;47.788;11.858;2022-12-07T05:44:46;1.60;99.90
26990;DHT22;14537;47.788;11.858;2022-12-07T05:47:13;1.60;99.90
26990;DHT22;14537;47.788;11.858;2022-12-07T05:49:39;1.60;99.90
26990;DHT22;14537;47.788;11.858;2022-12-07T05:52:05;1.60;99.90
26990;DHT22;14537;47.788;11.858;2022-12-07T05:54:31;1.70;99.90
26990;DHT22;14537;47.788;11.858;2022-12-07T05:56:57;1.70;99.90
26990;DHT22;14537;47.788;11.858;2022-12-07T05:59:23;1.80;99.90
26990;DHT22;14537;47.788;11.858;2022-12-07T06:01:57;1.80;99.90
26990;DHT22;14537;47.788;11.858;2022-12-07T06:04:24;1.80;99.90
26990;DHT22;14537;47.788;11.858;2022-12-07T06:06:50;1.80;99.90
26990;DHT22;14537;47.788;11.858;2022-12-07T06:09:17;1.80;99.90
26990;DHT22;14537;47.788;11.858;2022-12-07T06:11:43;1.80;99.90
26990;DHT22;14537;47.788;11.858;2022-12-07T06:14:28;1.80;99.90
26990;DHT22;14537;47.788;11.858;2022-12-07T06:16:53;1.80;99.90
26990;DHT22;14537;47.788;11.858;2022-12-07T06:19:19;1.60;99.90
26990;DHT22;14537;47.788;11.858;2022-12-07T06:21:44;1.50;99.90
26990;DHT22;14537;47.788;11.858;2022-12-07T06:24:14;1.40;99.90
26990;DHT22;14537;47.788;11.858;2022-12-07T06:26:40;1.40;99.90
26990;DHT22;14537;47.788;11.858;2022-12-07T06:29:06;1.40;99.90
26990;DHT22;14537;47.788;11.858;2022-12-07T06:31:32;1.40;99.90
26990;DHT22;14537;47.788;11.858;2022-12-07T06:34:03;1.40;99.90
26990;DHT22;14537;47.788;11.858;2022-12-07T06:36:29;1.30;99.90
26990;DHT22;14537;47.788;11.858;2022-12-07T06:38:55;1.20;99.90
26990;DHT22;14537;47.788;11.858;2022-12-07T06:41:21;1.10;99.90
26990;DHT22;14537;47.788;11.858;2022-12-07T06:43:46;1.20;99.90
26990;DHT22;14537;47.788;11.858;2022-12-07T06:46:13;1.20;99.90
26990;DHT22;14537;47.788;11.858;2022-12-07T06:48:39;1.10;99.90
26990;DHT22;14537;47.788;11.858;2022-12-07T06:51:05;1.10;99.90
26990;DHT22;14537;47.788;11.858;2022-12-07T06:53:30;1.10;99.90
26990;DHT22;14537;47.788;11.858;2022-12-07T06:55:56;1.00;99.90
26990;DHT22;14537;47.788;11.858;2022-12-07T06:58:22;1.00;99.90
26990;DHT22;14537;47.788;11.858;2022-12-07T07:00:48;1.00;99.90
26990;DHT22;14537;47.788;11.858;2022-12-07T07:03:14;1.00;99.90
26990;DHT22;14537;47.788;11.858;2022-12-07T07:05:40;1.00;99.90
26990;DHT22;14537;47.788;11.858;2022-12-07T07:08:06;1.00;99.90
26990;DHT22;14537;47.788;11.858;2022-12-07T07:10:31;1.00;99.90
26990;DHT22;14537;47.788;11.858;2022-12-07T07:12:57;1.00;99.90
26990;DHT22;14537;47.788;11.858;2022-12-07T07:15:23;0.80;99.90
26990;DHT22;14537;47.788;11.858;2022-12-07T07:17:48;0.80;99.90
26990;DHT22;14537;47.788;11.858;2022-12-07T07:20:14;0.80;99.90
26990;DHT22;14537;47.788;11.858;2022-12-07T07:22:39;0.70;99.90
26990;DHT22;14537;47.788;11.858;2022-12-07T07:25:05;0.80;99.90
26990;DHT22;14537;47.788;11.858;2022-12-07T07:27:31;0.70;99.90
26990;DHT22;14537;47.788;11.858;2022-12-07T07:29:56;0.70;99.90
26990;DHT22;14537;47.788;11.858;2022-12-07T07:32:22;0.60;99.90
26990;DHT22;14537;47.788;11.858;2022-12-07T07:34:48;0.70;99.90
26990;DHT22;14537;47.788;11.858;2022-12-07T07:37:14;0.70;99.90
26990;DHT22;14537;47.788;11.858;2022-12-07T07:39:39;0.60;99.90
26990;DHT22;14537;47.788;11.858;2022-12-07T07:42:05;0.50;99.90
26990;DHT22;14537;47.788;11.858;2022-12-07T07:44:33;0.60;99.90
26990;DHT22;14537;47.788;11.858;2022-12-07T07:46:59;0.50;99.90
26990;DHT22;14537;47.788;11.858;2022-12-07T07:49:25;0.50;99.90
26990;DHT22;14537;47.788;11.858;2022-12-07T07:51:50;0.50;99.90
26990;DHT22;14537;47.788;11.858;2022-12-07T07:54:16;0.50;99.90
26990;DHT22;14537;47.788;11.858;2022-12-07T07:56:42;0.50;99.90
26990;DHT22;14537;47.788;11.858;2022-12-07T07:59:07;0.60;99.90
26990;DHT22;14537;47.788;11.858;2022-12-07T08:01:33;0.70;99.90
26990;DHT22;14537;47.788;11.858;2022-12-07T08:03:59;0.70;99.90
26990;DHT22;14537;47.788;11.858;2022-12-07T08:06:25;0.80;99.90
26990;DHT22;14537;47.788;11.858;2022-12-07T08:08:51;0.90;99.90
26990;DHT22;14537;47.788;11.858;2022-12-07T08:11:17;1.00;99.90
26990;DHT22;14537;47.788;11.858;2022-12-07T08:13:45;0.90;99.90
26990;DHT22;14537;47.788;11.858;2022-12-07T08:16:11;0.90;99.90
26990;DHT22;14537;47.788;11.858;2022-12-07T08:18:39;0.90;99.90
26990;DHT22;14537;47.788;11.858;2022-12-07T08:21:07;0.90;99.90
26990;DHT22;14537;47.788;11.858;2022-12-07T08:23:33;1.00;99.90
26990;DHT22;14537;47.788;11.858;2022-12-07T08:26:11;1.10;99.90
26990;DHT22;14537;47.788;11.858;2022-12-07T08:28:37;1.10;99.90
26990;DHT22;14537;47.788;11.858;2022-12-07T08:31:08;1.20;99.90
26990;DHT22;14537;47.788;11.858;2022-12-07T08:33:34;1.20;99.90
26990;DHT22;14537;47.788;11.858;2022-12-07T08:36:04;1.30;99.90
26990;DHT22;14537;47.788;11.858;2022-12-07T08:38:31;1.20;99.90
26990;DHT22;14537;47.788;11.858;2022-12-07T08:40:58;1.30;99.90
26990;DHT22;14537;47.788;11.858;2022-12-07T08:43:24;1.30;99.90
26990;DHT22;14537;47.788;11.858;2022-12-07T08:46:21;1.30;99.90
26990;DHT22;14537;47.788;11.858;2022-12-07T08:48:50;1.30;99.90
26990;DHT22;14537;47.788;11.858;2022-12-07T08:51:17;1.40;99.90
26990;DHT22;14537;47.788;11.858;2022-12-07T08:53:44;1.40;99.90
26990;DHT22;14537;47.788;11.858;2022-12-07T08:56:10;1.40;99.90
26990;DHT22;14537;47.788;11.858;2022-12-07T08:58:36;1.40;99.90
26990;DHT22;14537;47.788;11.858;2022-12-07T09:01:03;1.40;99.90
26990;DHT22;14537;47.788;11.858;2022-12-07T09:03:30;1.50;99.90
26990;DHT22;14537;47.788;11.858;2022-12-07T09:05:56;1.50;99.90
26990;DHT22;14537;47.788;11.858;2022-12-07T09:08:26;1.50;99.90
26990;DHT22;14537;47.788;11.858;2022-12-07T09:10:54;1.50;99.90
26990;DHT22;14537;47.788;11.858;2022-12-07T09:13:20;1.50;99.90
26990;DHT22;14537;47.788;11.858;2022-12-07T09:15:45;1.60;99.90
26990;DHT22;14537;47.788;11.858;2022-12-07T09:18:11;1.60;99.90
26990;DHT22;14537;47.788;11.858;2022-12-07T09:20:37;1.60;99.90
26990;DHT22;14537;47.788;11.858;2022-12-07T09:23:02;1.60;99.90
26990;DHT22;14537;47.788;11.858;2022-12-07T09:25:30;1.60;99.90
26990;DHT22;14537;47.788;11.858;2022-12-07T09:27:56;1.60;99.90
26990;DHT22;14537;47.788;11.858;2022-12-07T09:30:23;1.60;99.90
26990;DHT22;14537;47.788;11.858;2022-12-07T09:32:48;1.60;99.90
26990;DHT22;14537;47.788;11.858;2022-12-07T09:35:14;1.60;99.90
26990;DHT22;14537;47.788;11.858;2022-12-07T09:37:40;1.60;99.90
26990;DHT22;14537;47.788;11.858;2022-12-07T09:40:06;1.70;99.90
26990;DHT22;14537;47.788;11.858;2022-12-07T09:45:00;1.70;99.90
26990;DHT22;14537;47.788;11.858;2022-12-07T09:47:27;1.60;99.90
26990;DHT22;14537;47.788;11.858;2022-12-07T09:50:05;1.70;99.90
26990;DHT22;14537;47.788;11.858;2022-12-07T09:52:32;1.70;99.90
26990;DHT22;14537;47.788;11.858;2022-12-07T09:54:58;1.70;99.90
26990;DHT22;14537;47.788;11.858;2022-12-07T09:57:33;1.70;99.90
26990;DHT22;14537;47.788;11.858;2022-12-07T10:00:10;1.70;99.90
26990;DHT22;14537;47.788;11.858;2022-12-07T10:02:56;1.80;99.90
26990;DHT22;14537;47.788;11.858;2022-12-07T10:05:37;1.80;99.90
26990;DHT22;14537;47.788;11.858;2022-12-07T10:08:04;1.80;99.90
26990;DHT22;14537;47.788;11.858;2022-12-07T10:10:34;1.80;99.90
26990;DHT22;14537;47.788;11.858;2022-12-07T10:13:11;1.80;99.90
26990;DHT22;14537;47.788;11.858;2022-12-07T10:15:53;1.80;99.90
26990;DHT22;14537;47.788;11.858;2022-12-07T10:18:38;1.80;99.90
26990;DHT22;14537;47.788;11.858;2022-12-07T10:23:36;1.80;99.90
26990;DHT22;14537;47.788;11.858;2022-12-07T10:28:59;1.90;99.90
26990;DHT22;14537;47.788;11.858;2022-12-07T10:31:25;2.00;99.90
26990;DHT22;14537;47.788;11.858;2022-12-07T10:34:00;1.90;99.90
26990;DHT22;14537;47.788;11.858;2022-12-07T10:39:13;1.80;99.90
26990;DHT22;14537;47.788;11.858;2022-12-07T10:42:02;1.90;99.90
26990;DHT22;14537;47.788;11.858;2022-12-07T10:44:33;1.90;99.90
26990;DHT22;14537;47.788;11.858;2022-12-07T10:59:04;2.10;99.90
26990;DHT22;14537;47.788;11.858;2022-12-07T11:01:45;2.10;99.90
26990;DHT22;14537;47.788;11.858;2022-12-07T11:18:24;2.10;99.90
26990;DHT22;14537;47.788;11.858;2022-12-07T11:29:10;2.20;99.90
26990;DHT22;14537;47.788;11.858;2022-12-07T11:32:02;2.20;99.90
26990;DHT22;14537;47.788;11.858;2022-12-07T11:37:37;2.30;99.90
26990;DHT22;14537;47.788;11.858;2022-12-07T11:40:24;2.30;99.90
26990;DHT22;14537;47.788;11.858;2022-12-07T11:42:59;2.30;99.90
26990;DHT22;14537;47.788;11.858;2022-12-07T11:45:31;2.30;99.90
26990;DHT22;14537;47.788;11.858;2022-12-07T11:48:03;2.30;99.90
26990;DHT22;14537;47.788;11.858;2022-12-07T11:50:57;2.30;99.90
26990;DHT22;14537;47.788;11.858;2022-12-07T11:53:48;2.30;99.90
26990;DHT22;14537;47.788;11.858;2022-12-07T11:56:20;2.30;99.90
26990;DHT22;14537;47.788;11.858;2022-12-07T12:06:36;2.40;99.90
26990;DHT22;14537;47.788;11.858;2022-12-07T12:09:04;2.40;99.90
26990;DHT22;14537;47.788;11.858;2022-12-07T12:14:48;2.40;99.90
26990;DHT22;14537;47.788;11.858;2022-12-07T12:17:50;2.40;99.90
26990;DHT22;14537;47.788;11.858;2022-12-07T12:25:34;2.40;99.90
26990;DHT22;14537;47.788;11.858;2022-12-07T12:28:01;2.30;99.90
26990;DHT22;14537;47.788;11.858;2022-12-07T12:30:39;2.40;99.90
26990;DHT22;14537;47.788;11.858;2022-12-07T12:33:26;2.40;99.90
26990;DHT22;14537;47.788;11.858;2022-12-07T12:51:48;2.40;99.90
26990;DHT22;14537;47.788;11.858;2022-12-07T12:59:41;2.30;99.90
26990;DHT22;14537;47.788;11.858;2022-12-07T13:05:22;2.40;99.90
26990;DHT22;14537;47.788;11.858;2022-12-07T13:07:58;2.40;99.90
26990;DHT22;14537;47.788;11.858;2022-12-07T13:26:12;2.40;99.90
26990;DHT22;14537;47.788;11.858;2022-12-07T13:28:50;2.50;99.90
26990;DHT22;14537;47.788;11.858;2022-12-07T13:33:51;2.40;99.90
26990;DHT22;14537;47.788;11.858;2022-12-07T13:36:27;2.40;99.90
26990;DHT22;14537;47.788;11.858;2022-12-07T13:38:59;2.40;99.90
26990;DHT22;14537;47.788;11.858;2022-12-07T13:41:29;2.40;99.90
26990;DHT22;14537;47.788;11.858;2022-12-07T13:44:25;2.40;99.90
26990;DHT22;14537;47.788;11.858;2022-12-07T13:47:16;2.40;99.90
26990;DHT22;14537;47.788;11.858;2022-12-07T13:49:49;2.40;99.90
26990;DHT22;14537;47.788;11.858;2022-12-07T13:55:13;2.40;99.90
26990;DHT22;14537;47.788;11.858;2022-12-07T13:57:40;2.40;99.90
26990;DHT22;14537;47.788;11.858;2022-12-07T14:05:26;2.40;99.90
26990;DHT22;14537;47.788;11.858;2022-12-07T14:07:57;2.40;99.90
26990;DHT22;14537;47.788;11.858;2022-12-07T14:15:55;2.30;99.90
26990;DHT22;14537;47.788;11.858;2022-12-07T14:18:49;2.30;99.90
26990;DHT22;14537;47.788;11.858;2022-12-07T14:21:23;2.30;99.90
26990;DHT22;14537;47.788;11.858;2022-12-07T14:24:09;2.30;99.90
26990;DHT22;14537;47.788;11.858;2022-12-07T14:26:35;2.20;99.90
26990;DHT22;14537;47.788;11.858;2022-12-07T14:29:32;2.20;99.90
26990;DHT22;14537;47.788;11.858;2022-12-07T14:32:19;2.10;99.90
26990;DHT22;14537;47.788;11.858;2022-12-07T14:35:17;2.10;99.90
26990;DHT22;14537;47.788;11.858;2022-12-07T14:37:44;2.10;99.90
26990;DHT22;14537;47.788;11.858;2022-12-07T14:40:22;2.10;99.90
26990;DHT22;14537;47.788;11.858;2022-12-07T14:42:51;2.20;99.90
26990;DHT22;14537;47.788;11.858;2022-12-07T14:45:21;2.10;99.90
26990;DHT22;14537;47.788;11.858;2022-12-07T14:47:47;2.00;99.90
26990;DHT22;14537;47.788;11.858;2022-12-07T14:50:16;1.90;99.90
26990;DHT22;14537;47.788;11.858;2022-12-07T14:52:52;1.90;99.90
26990;DHT22;14537;47.788;11.858;2022-12-07T14:55:29;1.90;99.90
26990;DHT22;14537;47.788;11.858;2022-12-07T14:57:55;1.90;99.90
26990;DHT22;14537;47.788;11.858;2022-12-07T15:00:23;1.90;99.90
26990;DHT22;14537;47.788;11.858;2022-12-07T15:02:49;2.00;99.90
26990;DHT22;14537;47.788;11.858;2022-12-07T15:05:16;2.00;99.90
26990;DHT22;14537;47.788;11.858;2022-12-07T15:07:43;1.90;99.90
26990;DHT22;14537;47.788;11.858;2022-12-07T15:10:21;1.90;99.90
26990;DHT22;14537;47.788;11.858;2022-12-07T15:12:46;1.90;99.90
26990;DHT22;14537;47.788;11.858;2022-12-07T15:15:12;1.90;99.90
26990;DHT22;14537;47.788;11.858;2022-12-07T15:17:38;1.90;99.90
26990;DHT22;14537;47.788;11.858;2022-12-07T15:20:05;1.90;99.90
26990;DHT22;14537;47.788;11.858;2022-12-07T15:22:30;1.80;99.90
26990;DHT22;14537;47.788;11.858;2022-12-07T15:24:57;1.80;99.90
26990;DHT22;14537;47.788;11.858;2022-12-07T15:27:23;1.80;99.90
26990;DHT22;14537;47.788;11.858;2022-12-07T15:29:48;1.80;99.90
26990;DHT22;14537;47.788;11.858;2022-12-07T15:32:14;1.80;99.90
26990;DHT22;14537;47.788;11.858;2022-12-07T15:34:40;1.80;99.90
26990;DHT22;14537;47.788;11.858;2022-12-07T15:37:06;1.70;99.90
26990;DHT22;14537;47.788;11.858;2022-12-07T15:39:31;1.70;99.90
26990;DHT22;14537;47.788;11.858;2022-12-07T15:41:57;1.70;99.90
26990;DHT22;14537;47.788;11.858;2022-12-07T15:44:23;1.70;99.90
26990;DHT22;14537;47.788;11.858;2022-12-07T15:47:07;1.70;99.90
26990;DHT22;14537;47.788;11.858;2022-12-07T15:49:33;1.70;99.90
26990;DHT22;14537;47.788;11.858;2022-12-07T15:51:59;1.60;99.90
26990;DHT22;14537;47.788;11.858;2022-12-07T15:54:27;1.60;99.90
26990;DHT22;14537;47.788;11.858;2022-12-07T15:56:53;1.60;99.90
26990;DHT22;14537;47.788;11.858;2022-12-07T15:59:19;1.60;99.90
26990;DHT22;14537;47.788;11.858;2022-12-07T16:01:45;1.60;99.90
26990;DHT22;14537;47.788;11.858;2022-12-07T16:04:10;1.60;99.90
26990;DHT22;14537;47.788;11.858;2022-12-07T16:06:36;1.60;99.90
26990;DHT22;14537;47.788;11.858;2022-12-07T16:09:03;1.60;99.90
26990;DHT22;14537;47.788;11.858;2022-12-07T16:11:28;1.60;99.90
26990;DHT22;14537;47.788;11.858;2022-12-07T16:13:54;1.50;99.90
26990;DHT22;14537;47.788;11.858;2022-12-07T16:16:20;1.50;99.90
26990;DHT22;14537;47.788;11.858;2022-12-07T16:18:48;1.50;99.90
26990;DHT22;14537;47.788;11.858;2022-12-07T16:21:14;1.50;99.90
26990;DHT22;14537;47.788;11.858;2022-12-07T16:23:40;1.40;99.90
26990;DHT22;14537;47.788;11.858;2022-12-07T16:26:13;1.50;99.90
26990;DHT22;14537;47.788;11.858;2022-12-07T16:28:40;1.50;99.90
26990;DHT22;14537;47.788;11.858;2022-12-07T16:31:11;1.40;99.90
26990;DHT22;14537;47.788;11.858;2022-12-07T16:33:38;1.40;99.90
26990;DHT22;14537;47.788;11.858;2022-12-07T16:36:05;1.40;99.90
26990;DHT22;14537;47.788;11.858;2022-12-07T16:38:31;1.40;99.90
26990;DHT22;14537;47.788;11.858;2022-12-07T16:40:57;1.40;99.90
26990;DHT22;14537;47.788;11.858;2022-12-07T16:43:22;1.40;99.90
26990;DHT22;14537;47.788;11.858;2022-12-07T16:45:48;1.40;99.90
26990;DHT22;14537;47.788;11.858;2022-12-07T16:48:15;1.40;99.90
26990;DHT22;14537;47.788;11.858;2022-12-07T16:50:41;1.40;99.90
26990;DHT22;14537;47.788;11.858;2022-12-07T16:53:09;1.40;99.90
26990;DHT22;14537;47.788;11.858;2022-12-07T16:55:39;1.40;99.90
26990;DHT22;14537;47.788;11.858;2022-12-07T16:58:05;1.40;99.90
26990;DHT22;14537;47.788;11.858;2022-12-07T17:00:30;1.40;99.90
26990;DHT22;14537;47.788;11.858;2022-12-07T17:02:56;1.40;99.90
26990;DHT22;14537;47.788;11.858;2022-12-07T17:05:22;1.40;99.90
26990;DHT22;14537;47.788;11.858;2022-12-07T17:07:49;1.30;99.90
26990;DHT22;14537;47.788;11.858;2022-12-07T17:10:14;1.30;99.90
26990;DHT22;14537;47.788;11.858;2022-12-07T17:12:40;1.30;99.90
26990;DHT22;14537;47.788;11.858;2022-12-07T17:15:06;1.30;99.90
26990;DHT22;14537;47.788;11.858;2022-12-07T17:17:52;1.30;99.90
26990;DHT22;14537;47.788;11.858;2022-12-07T17:20:19;1.30;99.90
26990;DHT22;14537;47.788;11.858;2022-12-07T17:22:45;1.30;99.90
26990;DHT22;14537;47.788;11.858;2022-12-07T17:25:11;1.30;99.90
26990;DHT22;14537;47.788;11.858;2022-12-07T17:27:37;1.30;99.90
26990;DHT22;14537;47.788;11.858;2022-12-07T17:30:04;1.30;99.90
26990;DHT22;14537;47.788;11.858;2022-12-07T17:32:30;1.30;99.90
26990;DHT22;14537;47.788;11.858;2022-12-07T17:34:56;1.30;99.90
26990;DHT22;14537;47.788;11.858;2022-12-07T17:37:21;1.30;99.90
26990;DHT22;14537;47.788;11.858;2022-12-07T17:39:47;1.30;99.90
26990;DHT22;14537;47.788;11.858;2022-12-07T17:42:13;1.10;99.90
26990;DHT22;14537;47.788;11.858;2022-12-07T17:44:57;1.10;99.90
26990;DHT22;14537;47.788;11.858;2022-12-07T17:47:23;1.20;99.90
26990;DHT22;14537;47.788;11.858;2022-12-07T17:49:48;1.20;99.90
26990;DHT22;14537;47.788;11.858;2022-12-07T17:52:14;1.20;99.90
26990;DHT22;14537;47.788;11.858;2022-12-07T17:54:58;1.30;99.90
26990;DHT22;14537;47.788;11.858;2022-12-07T17:57:24;1.30;99.90
26990;DHT22;14537;47.788;11.858;2022-12-07T17:59:49;1.20;99.90
26990;DHT22;14537;47.788;11.858;2022-12-07T18:02:17;1.30;99.90
26990;DHT22;14537;47.788;11.858;2022-12-07T18:04:42;1.20;99.90
26990;DHT22;14537;47.788;11.858;2022-12-07T18:07:09;1.30;99.90
26990;DHT22;14537;47.788;11.858;2022-12-07T18:09:34;1.30;99.90
26990;DHT22;14537;47.788;11.858;2022-12-07T18:12:01;1.30;99.90